Time;durP1;ratioP1;P1;durP2;ratioP2;P2;SDS_P1;SDS_P2;PMS_P1;PMS_P2;Temp;Humidity;BMP_temperature;BMP_pressure;BME280_temperature;BME280_humidity;BME280_pressure;Samples;Min_cycle;Max_cycle;Signal;HPM_P1;HPM_P2
2023/06/27 00:01:39;;;;;;;2.20;0.30;;;21.50;1.00;;;;;;5136156;27;20487;-59
2023/06/27 00:04:06;;;;;;;0.67;0.30;;;21.40;1.00;;;;;;5136294;27;20729;-59
2023/06/27 00:06:37;;;;;;;1.40;0.40;;;21.40;1.00;;;;;;5136863;27;20410;-60
2023/06/27 00:09:05;;;;;;;1.60;0.40;;;21.50;1.00;;;;;;5137288;27;20553;-59
2023/06/27 00:11:33;;;;;;;0.70;0.40;;;21.60;1.00;;;;;;5137391;27;20466;-60
2023/06/27 00:14:00;;;;;;;1.23;0.40;;;21.50;1.00;;;;;;5137389;27;20438;-60
2023/06/27 00:16:28;;;;;;;0.60;0.40;;;21.40;1.00;;;;;;5136004;27;20449;-58
2023/06/27 00:18:55;;;;;;;1.00;0.40;;;21.30;1.00;;;;;;5137070;27;20503;-59
2023/06/27 00:21:28;;;;;;;1.80;0.40;;;21.30;1.00;;;;;;5137398;27;20780;-60
2023/06/27 00:23:57;;;;;;;1.40;0.40;;;21.20;1.00;;;;;;5137386;27;20427;-59
2023/06/27 00:26:24;;;;;;;2.20;0.40;;;21.30;1.00;;;;;;5137289;27;20861;-60
2023/06/27 00:28:51;;;;;;;1.02;0.40;;;21.40;1.00;;;;;;5136669;27;20479;-59
2023/06/27 00:31:18;;;;;;;0.95;0.40;;;21.40;1.00;;;;;;5136977;27;20734;-59
2023/06/27 00:33:45;;;;;;;1.13;0.40;;;21.30;1.00;;;;;;5136786;27;20431;-60
2023/06/27 00:36:12;;;;;;;0.95;0.40;;;21.30;1.00;;;;;;5136915;27;20475;-58
2023/06/27 00:38:38;;;;;;;0.73;0.40;;;21.30;1.00;;;;;;5136991;27;20712;-59
2023/06/27 00:41:07;;;;;;;0.60;0.30;;;21.50;1.00;;;;;;5136878;27;20422;-59
2023/06/27 00:43:34;;;;;;;0.70;0.30;;;21.50;1.00;;;;;;5136524;27;20414;-59
2023/06/27 00:46:04;;;;;;;1.20;0.40;;;21.50;1.00;;;;;;5137099;27;20794;-59
2023/06/27 00:48:32;;;;;;;0.98;0.40;;;21.40;1.00;;;;;;5136553;27;20424;-59
2023/06/27 00:51:00;;;;;;;0.60;0.30;;;21.20;1.00;;;;;;5137165;27;20426;-59
2023/06/27 00:53:27;;;;;;;0.70;0.40;;;21.10;1.00;;;;;;5135351;27;20746;-59
2023/06/27 00:55:55;;;;;;;0.63;0.30;;;21.30;1.00;;;;;;5136522;27;20472;-59
2023/06/27 00:58:24;;;;;;;1.00;0.50;;;21.30;1.00;;;;;;5137112;27;20423;-59
2023/06/27 01:00:51;;;;;;;0.77;0.40;;;21.30;1.00;;;;;;5135743;27;20494;-60
2023/06/27 01:03:20;;;;;;;0.60;0.40;;;21.40;1.00;;;;;;5135856;27;20475;-60
2023/06/27 01:05:48;;;;;;;0.80;0.40;;;21.30;1.00;;;;;;5136369;27;20537;-59
2023/06/27 01:08:35;;;;;;;0.68;0.30;;;21.30;1.00;;;;;;5135636;27;20426;-60
2023/06/27 01:11:09;;;;;;;0.80;0.40;;;21.40;1.00;;;;;;5135840;27;20737;-59
2023/06/27 01:13:43;;;;;;;1.10;0.40;;;21.30;1.00;;;;;;5136253;27;20490;-60
2023/06/27 01:16:10;;;;;;;0.90;0.40;;;21.10;1.00;;;;;;5136174;27;20422;-60
2023/06/27 01:18:41;;;;;;;0.60;0.30;;;21.00;1.00;;;;;;5135929;27;20415;-62
2023/06/27 01:21:09;;;;;;;0.80;0.40;;;21.10;1.00;;;;;;5136033;27;20421;-60
2023/06/27 01:23:48;;;;;;;0.83;0.40;;;21.20;1.00;;;;;;5136377;27;20414;-58
2023/06/27 01:26:16;;;;;;;1.60;0.40;;;21.30;1.00;;;;;;5136714;27;20890;-59
2023/06/27 01:28:43;;;;;;;1.88;0.50;;;21.30;1.00;;;;;;5135851;27;20430;-59
2023/06/27 01:31:14;;;;;;;0.90;0.40;;;21.20;1.00;;;;;;5136018;27;20426;-59
2023/06/27 01:33:47;;;;;;;0.80;0.50;;;21.20;1.00;;;;;;5135462;27;20433;-60
2023/06/27 01:36:19;;;;;;;0.70;0.35;;;21.10;1.00;;;;;;5135449;27;20449;-59
2023/06/27 01:38:54;;;;;;;1.45;0.40;;;21.10;1.00;;;;;;5136280;27;20470;-59
2023/06/27 01:41:22;;;;;;;1.40;0.40;;;21.00;1.00;;;;;;5136115;27;20779;-59
2023/06/27 01:43:53;;;;;;;0.63;0.40;;;21.00;1.00;;;;;;5135535;27;20425;-60
2023/06/27 01:46:21;;;;;;;1.80;0.50;;;20.90;1.00;;;;;;5134581;27;20426;-59
2023/06/27 01:48:51;;;;;;;1.52;0.40;;;20.80;1.00;;;;;;5134409;27;20420;-59
2023/06/27 01:51:18;;;;;;;1.70;0.40;;;21.00;1.00;;;;;;5134709;27;20443;-59
2023/06/27 01:53:46;;;;;;;1.20;0.40;;;21.00;1.00;;;;;;5134338;28;20440;-60
2023/06/27 01:56:14;;;;;;;0.93;0.40;;;21.00;1.00;;;;;;5134291;28;20501;-59
2023/06/27 01:58:41;;;;;;;0.80;0.40;;;21.00;1.00;;;;;;5134268;28;20501;-59
2023/06/27 02:01:09;;;;;;;0.90;0.40;;;21.00;1.00;;;;;;5135267;28;20464;-58
2023/06/27 02:03:36;;;;;;;0.70;0.40;;;20.90;1.00;;;;;;5136088;27;20488;-57
2023/06/27 02:06:03;;;;;;;1.10;0.40;;;20.90;1.00;;;;;;5140159;27;20640;-60
2023/06/27 02:08:30;;;;;;;1.00;0.40;;;21.00;1.00;;;;;;5139901;27;20863;-59
2023/06/27 02:10:58;;;;;;;0.80;0.40;;;21.00;1.00;;;;;;5140792;27;20538;-60
2023/06/27 02:13:26;;;;;;;0.70;0.40;;;21.00;1.00;;;;;;5140094;27;20436;-60
2023/06/27 02:15:53;;;;;;;1.25;0.40;;;20.90;1.00;;;;;;5140130;27;20511;-58
2023/06/27 02:18:20;;;;;;;1.60;0.40;;;20.90;1.00;;;;;;5140003;27;20410;-59
2023/06/27 02:20:47;;;;;;;0.75;0.40;;;20.90;1.00;;;;;;5140033;27;20717;-60
2023/06/27 02:23:14;;;;;;;0.60;0.33;;;20.80;1.00;;;;;;5139334;27;20823;-59
2023/06/27 02:25:43;;;;;;;0.60;0.40;;;20.70;1.00;;;;;;5139330;27;20889;-60
2023/06/27 02:28:11;;;;;;;1.43;0.40;;;20.70;1.00;;;;;;5139569;27;20465;-60
2023/06/27 02:30:38;;;;;;;0.70;0.40;;;20.80;1.00;;;;;;5139481;27;20471;-59
2023/06/27 02:33:05;;;;;;;1.35;0.40;;;20.80;1.00;;;;;;5139141;27;20495;-61
2023/06/27 02:35:32;;;;;;;0.60;0.40;;;20.70;1.00;;;;;;5139476;27;20466;-60
2023/06/27 02:37:59;;;;;;;0.70;0.40;;;20.70;1.00;;;;;;5139115;27;20864;-61
2023/06/27 02:40:26;;;;;;;1.00;0.40;;;20.70;1.00;;;;;;5138071;27;20479;-59
2023/06/27 02:42:53;;;;;;;1.40;0.50;;;20.70;1.00;;;;;;5137791;27;20414;-59
2023/06/27 02:45:21;;;;;;;0.80;0.40;;;20.60;1.00;;;;;;5137690;27;20414;-59
2023/06/27 02:47:48;;;;;;;0.90;0.40;;;20.60;1.00;;;;;;5138186;27;20426;-59
2023/06/27 02:50:15;;;;;;;0.75;0.40;;;20.70;1.00;;;;;;5137932;27;20429;-60
2023/06/27 02:52:42;;;;;;;0.80;0.40;;;20.80;1.00;;;;;;5137353;27;20422;-59
2023/06/27 02:55:09;;;;;;;1.30;0.40;;;20.70;1.00;;;;;;5137403;27;20857;-59
2023/06/27 02:57:36;;;;;;;0.77;0.40;;;20.70;1.00;;;;;;5137339;27;20512;-59
2023/06/27 03:00:04;;;;;;;0.70;0.40;;;20.50;1.00;;;;;;5136076;27;20533;-59
2023/06/27 03:02:32;;;;;;;1.00;0.40;;;20.30;1.00;;;;;;5136718;27;20463;-60
2023/06/27 03:04:59;;;;;;;0.80;0.40;;;20.40;1.00;;;;;;5137803;27;20407;-59
2023/06/27 03:07:26;;;;;;;1.58;0.40;;;20.50;1.00;;;;;;5139020;27;20479;-60
2023/06/27 03:09:53;;;;;;;0.77;0.40;;;20.70;1.00;;;;;;5138588;27;20429;-60
2023/06/27 03:12:20;;;;;;;0.60;0.40;;;20.70;1.00;;;;;;5137892;27;20414;-59
2023/06/27 03:14:47;;;;;;;1.70;0.50;;;20.40;1.00;;;;;;5137732;27;20470;-63
2023/06/27 03:17:14;;;;;;;1.27;0.40;;;20.70;1.00;;;;;;5137204;27;20430;-59
2023/06/27 03:19:42;;;;;;;1.30;0.50;;;20.70;1.00;;;;;;5138436;27;20856;-60
2023/06/27 03:22:09;;;;;;;1.10;0.40;;;20.60;1.00;;;;;;5138514;27;20525;-58
2023/06/27 03:24:36;;;;;;;0.70;0.40;;;20.50;1.00;;;;;;5138298;27;20459;-58
2023/06/27 03:27:03;;;;;;;0.80;0.40;;;20.40;1.00;;;;;;5138797;27;20478;-59
2023/06/27 03:29:30;;;;;;;1.52;0.40;;;20.30;1.00;;;;;;5137778;27;20426;-58
2023/06/27 03:31:58;;;;;;;0.80;0.50;;;20.40;1.00;;;;;;5138248;27;20475;-59
2023/06/27 03:34:25;;;;;;;1.30;0.40;;;20.50;1.00;;;;;;5138467;27;20466;-59
2023/06/27 03:36:53;;;;;;;0.80;0.50;;;20.40;1.00;;;;;;5136915;27;20421;-58
2023/06/27 03:39:20;;;;;;;1.90;0.40;;;20.30;1.00;;;;;;5136576;27;20475;-58
2023/06/27 03:41:47;;;;;;;1.30;0.40;;;20.40;1.00;;;;;;5136868;27;20426;-56
2023/06/27 03:44:14;;;;;;;0.70;0.40;;;20.20;1.00;;;;;;5136607;27;20483;-60
2023/06/27 03:46:41;;;;;;;1.20;0.40;;;20.10;1.00;;;;;;5136159;27;20480;-58
2023/06/27 03:49:08;;;;;;;0.90;0.40;;;20.20;1.00;;;;;;5134900;27;20826;-60
2023/06/27 03:51:35;;;;;;;0.90;0.50;;;20.10;1.00;;;;;;5135972;27;20457;-52
2023/06/27 03:54:06;;;;;;;0.70;0.40;;;20.20;1.00;;;;;;5136264;27;20880;-58
2023/06/27 03:56:33;;;;;;;0.73;0.40;;;20.30;1.00;;;;;;5136277;27;20466;-58
2023/06/27 03:59:00;;;;;;;1.30;0.50;;;20.40;1.00;;;;;;5135292;27;20479;-55
2023/06/27 04:01:27;;;;;;;0.70;0.40;;;20.60;1.00;;;;;;5136483;27;20713;-57
2023/06/27 04:03:54;;;;;;;1.50;0.40;;;20.50;1.00;;;;;;5137444;27;20415;-56
2023/06/27 04:06:21;;;;;;;1.30;0.40;;;20.40;1.00;;;;;;5138148;27;20467;-58
2023/06/27 04:08:48;;;;;;;1.50;0.50;;;20.20;1.00;;;;;;5137597;27;20431;-56
2023/06/27 04:11:16;;;;;;;0.80;0.40;;;20.20;1.00;;;;;;5136654;27;20487;-57
2023/06/27 04:13:43;;;;;;;1.55;0.40;;;20.10;1.00;;;;;;5137964;27;20430;-56
2023/06/27 04:16:10;;;;;;;1.90;0.40;;;19.90;1.00;;;;;;5137395;27;20730;-54
2023/06/27 04:18:37;;;;;;;1.13;0.50;;;20.00;1.00;;;;;;5136116;27;20824;-57
2023/06/27 04:21:04;;;;;;;0.80;0.40;;;20.10;1.00;;;;;;5135849;27;20419;-56
2023/06/27 04:23:31;;;;;;;1.20;0.40;;;20.10;1.00;;;;;;5134407;27;20487;-56
2023/06/27 04:26:04;;;;;;;1.40;0.40;;;20.00;1.00;;;;;;5134318;27;20475;-53
2023/06/27 04:28:32;;;;;;;1.50;0.40;;;20.00;1.00;;;;;;5133943;27;20426;-55
2023/06/27 04:31:00;;;;;;;0.60;0.35;;;20.00;1.00;;;;;;5133288;27;20479;-57
2023/06/27 04:33:27;;;;;;;0.70;0.40;;;20.10;1.00;;;;;;5135524;27;20532;-54
2023/06/27 04:35:57;;;;;;;0.70;0.40;;;20.00;1.00;;;;;;5134387;27;20522;-58
2023/06/27 04:38:24;;;;;;;1.50;0.40;;;19.90;1.00;;;;;;5134477;27;20418;-57
2023/06/27 04:40:51;;;;;;;0.70;0.40;;;19.80;1.00;;;;;;5134962;27;20418;-56
2023/06/27 04:43:18;;;;;;;0.80;0.40;;;19.70;1.00;;;;;;5135596;27;20450;-57
2023/06/27 04:45:46;;;;;;;0.70;0.40;;;20.00;1.00;;;;;;5135716;27;20422;-57
2023/06/27 04:48:13;;;;;;;1.00;0.40;;;20.00;1.00;;;;;;5135448;27;20414;-56
2023/06/27 04:50:40;;;;;;;0.90;0.40;;;20.10;1.00;;;;;;5135597;27;20482;-56
2023/06/27 04:53:07;;;;;;;1.90;0.50;;;20.10;1.00;;;;;;5135293;27;20895;-55
2023/06/27 04:55:34;;;;;;;1.05;0.40;;;20.10;1.00;;;;;;5135050;27;20701;-57
2023/06/27 04:58:01;;;;;;;1.83;0.43;;;20.10;1.00;;;;;;5135748;27;20487;-53
2023/06/27 05:00:28;;;;;;;1.15;0.40;;;19.90;1.00;;;;;;5133940;27;20415;-55
2023/06/27 05:02:57;;;;;;;0.60;0.40;;;20.00;1.00;;;;;;5135035;27;20431;-51
2023/06/27 05:05:24;;;;;;;1.00;0.40;;;20.10;1.00;;;;;;5136242;27;20450;-58
2023/06/27 05:07:51;;;;;;;1.80;0.50;;;20.10;1.00;;;;;;5134346;27;20878;-53
2023/06/27 05:10:18;;;;;;;0.77;0.40;;;20.30;1.00;;;;;;5133971;27;20522;-55
2023/06/27 05:12:45;;;;;;;0.95;0.40;;;20.30;1.00;;;;;;5134238;27;20910;-55
2023/06/27 05:15:12;;;;;;;0.80;0.40;;;20.40;1.00;;;;;;5134405;27;20523;-54
2023/06/27 05:17:39;;;;;;;2.22;0.40;;;20.50;1.00;;;;;;5133482;27;20418;-57
2023/06/27 05:20:10;;;;;;;1.60;0.50;;;20.30;1.00;;;;;;5133007;27;20457;-57
2023/06/27 05:22:37;;;;;;;0.90;0.40;;;20.30;1.00;;;;;;5133316;27;20450;-55
2023/06/27 05:25:04;;;;;;;0.60;0.40;;;20.50;1.00;;;;;;5129705;27;20966;-56
2023/06/27 05:27:31;;;;;;;0.70;0.40;;;20.60;1.00;;;;;;5132120;27;20407;-57
2023/06/27 05:29:58;;;;;;;0.73;0.50;;;20.60;1.00;;;;;;5131629;27;20418;-53
2023/06/27 05:32:25;;;;;;;0.90;0.40;;;20.60;1.00;;;;;;5132069;27;20423;-55
2023/06/27 05:34:52;;;;;;;1.70;0.40;;;20.70;1.00;;;;;;5129863;27;20912;-56
2023/06/27 05:37:20;;;;;;;1.85;0.40;;;20.70;1.00;;;;;;5130833;27;20799;-57
2023/06/27 05:39:47;;;;;;;1.20;0.50;;;20.60;1.00;;;;;;5128386;27;20772;-56
2023/06/27 05:42:14;;;;;;;1.00;0.40;;;20.40;1.00;;;;;;5128340;27;20418;-57
2023/06/27 05:44:41;;;;;;;1.92;0.50;;;20.30;1.00;;;;;;5128852;27;20610;-52
2023/06/27 05:47:08;;;;;;;1.20;0.40;;;20.50;1.00;;;;;;5129242;27;20449;-53
2023/06/27 05:49:35;;;;;;;0.60;0.40;;;20.80;1.00;;;;;;5128398;27;20419;-56
2023/06/27 05:52:02;;;;;;;1.80;0.50;;;20.90;1.00;;;;;;5128282;27;20418;-53
2023/06/27 05:54:30;;;;;;;1.10;0.50;;;20.90;1.00;;;;;;5129943;28;20773;-55
2023/06/27 05:56:57;;;;;;;0.70;0.40;;;20.90;1.00;;;;;;5129956;28;20885;-58
2023/06/27 05:59:25;;;;;;;1.20;0.40;;;20.60;1.00;;;;;;5129322;28;20421;-56
2023/06/27 06:01:51;;;;;;;0.65;0.32;;;20.40;1.00;;;;;;5129574;28;20723;-56
2023/06/27 06:04:18;;;;;;;1.00;0.47;;;20.40;1.00;;;;;;5128346;28;20490;-53
2023/06/27 06:06:46;;;;;;;1.40;0.40;;;20.60;1.00;;;;;;5130136;28;20419;-52
2023/06/27 06:09:13;;;;;;;0.80;0.40;;;20.90;1.00;;;;;;5131119;27;20418;-55
2023/06/27 06:11:41;;;;;;;0.70;0.40;;;21.10;1.00;;;;;;5130840;28;20426;-57
2023/06/27 06:14:08;;;;;;;1.85;0.40;;;21.20;1.00;;;;;;5132924;28;20772;-55
2023/06/27 06:16:35;;;;;;;0.70;0.40;;;21.30;1.00;;;;;;5132047;28;20423;-55
2023/06/27 06:19:03;;;;;;;0.82;0.50;;;21.30;1.00;;;;;;5131452;28;20720;-54
2023/06/27 06:21:32;;;;;;;0.90;0.40;;;21.30;1.00;;;;;;5128949;28;20705;-51
2023/06/27 06:23:59;;;;;;;1.00;0.40;;;21.40;1.00;;;;;;5129142;28;20528;-56
2023/06/27 06:26:26;;;;;;;0.98;0.40;;;21.20;1.00;;;;;;5129861;28;20486;-55
2023/06/27 06:28:54;;;;;;;1.33;0.40;;;20.90;1.00;;;;;;5129929;28;20437;-55
2023/06/27 06:31:23;;;;;;;0.70;0.40;;;20.80;1.00;;;;;;5129207;28;20782;-56
2023/06/27 06:33:51;;;;;;;0.70;0.40;;;20.60;1.00;;;;;;5131327;28;20423;-56
2023/06/27 06:36:18;;;;;;;1.40;0.43;;;20.60;1.00;;;;;;5131010;28;20497;-57
2023/06/27 06:38:45;;;;;;;0.80;0.40;;;20.60;1.00;;;;;;5129816;28;20426;-56
2023/06/27 06:41:12;;;;;;;1.80;0.40;;;20.70;1.00;;;;;;5132484;28;20784;-58
2023/06/27 06:43:39;;;;;;;0.70;0.40;;;20.80;1.00;;;;;;5130082;28;20502;-58
2023/06/27 06:46:09;;;;;;;1.40;0.40;;;21.00;1.00;;;;;;5129615;28;20842;-57
2023/06/27 06:48:36;;;;;;;0.60;0.40;;;21.40;1.00;;;;;;5131977;28;20426;-59
2023/06/27 06:51:03;;;;;;;0.85;0.40;;;21.60;1.00;;;;;;5134546;27;20485;-55
2023/06/27 06:53:30;;;;;;;0.98;0.40;;;21.70;1.00;;;;;;5136703;27;20795;-57
2023/06/27 06:55:57;;;;;;;0.70;0.40;;;21.60;1.00;;;;;;5136293;27;20829;-56
2023/06/27 06:58:25;;;;;;;0.80;0.40;;;21.10;1.00;;;;;;5134748;27;20483;-56
2023/06/27 07:00:52;;;;;;;1.25;0.40;;;21.30;1.00;;;;;;5132406;27;20422;-54
2023/06/27 07:03:20;;;;;;;1.10;0.40;;;21.40;1.00;;;;;;5133461;27;20414;-55
2023/06/27 07:05:47;;;;;;;1.30;0.50;;;21.50;1.00;;;;;;5132271;27;20474;-55
2023/06/27 07:08:14;;;;;;;1.50;0.40;;;21.70;1.00;;;;;;5132830;27;20724;-55
2023/06/27 07:10:41;;;;;;;0.90;0.40;;;21.70;1.00;;;;;;5091405;28;20422;-52
2023/06/27 07:13:08;;;;;;;1.40;0.40;;;21.50;1.00;;;;;;5091414;28;20422;-52
2023/06/27 07:15:35;;;;;;;1.10;0.40;;;21.50;1.00;;;;;;5091264;28;20487;-55
2023/06/27 07:18:02;;;;;;;1.70;0.40;;;21.30;1.00;;;;;;5094026;28;20418;-55
2023/06/27 07:20:31;;;;;;;0.93;0.40;;;21.40;1.00;;;;;;5094971;28;20491;-54
2023/06/27 07:22:57;;;;;;;1.30;0.30;;;21.50;1.00;;;;;;5094490;28;20417;-53
2023/06/27 07:25:25;;;;;;;1.25;0.50;;;21.80;1.00;;;;;;5095573;28;20429;-55
2023/06/27 07:27:51;;;;;;;1.10;0.50;;;21.70;1.00;;;;;;5092909;28;20426;-56
2023/06/27 07:30:18;;;;;;;1.10;0.40;;;21.90;1.00;;;;;;5092784;28;20441;-55
2023/06/27 07:32:45;;;;;;;0.80;0.50;;;21.90;1.00;;;;;;5093294;28;20486;-53
2023/06/27 07:35:12;;;;;;;1.10;0.40;;;21.90;1.00;;;;;;5093942;28;20433;-54
2023/06/27 07:37:41;;;;;;;1.20;0.43;;;21.80;1.00;;;;;;5093486;28;20910;-53
2023/06/27 07:40:10;;;;;;;1.80;0.50;;;22.00;1.00;;;;;;5094995;28;20429;-54
2023/06/27 07:42:37;;;;;;;1.05;0.40;;;22.20;1.00;;;;;;5093243;28;20897;-53
2023/06/27 07:45:05;;;;;;;0.70;0.40;;;21.70;1.00;;;;;;5094877;28;20826;-53
2023/06/27 07:47:32;;;;;;;1.30;0.40;;;21.80;1.00;;;;;;5094011;28;20470;-54
2023/06/27 07:49:59;;;;;;;1.38;0.40;;;22.00;1.00;;;;;;5092554;28;20527;-54
2023/06/27 07:52:26;;;;;;;0.73;0.40;;;22.20;1.00;;;;;;5091722;28;20433;-56
2023/06/27 07:54:54;;;;;;;1.13;0.50;;;22.20;1.00;;;;;;5091111;28;20831;-51
2023/06/27 07:57:21;;;;;;;0.70;0.40;;;22.00;1.00;;;;;;5087078;28;20499;-53
2023/06/27 07:59:48;;;;;;;0.70;0.40;;;22.10;1.00;;;;;;5089306;28;20430;-54
2023/06/27 08:02:15;;;;;;;0.80;0.40;;;22.10;1.00;;;;;;5091379;28;20894;-54
2023/06/27 08:04:43;;;;;;;1.73;0.40;;;22.20;1.00;;;;;;5092254;28;20422;-56
2023/06/27 08:07:10;;;;;;;2.25;0.40;;;22.30;1.00;;;;;;5090741;28;20764;-53
2023/06/27 08:09:37;;;;;;;2.10;0.50;;;22.00;1.00;;;;;;5114415;27;20433;-56
2023/06/27 08:12:07;;;;;;;0.50;0.40;;;22.00;1.00;;;;;;5133532;27;20419;-56
2023/06/27 08:14:34;;;;;;;1.00;0.40;;;22.20;1.00;;;;;;5132446;27;20426;-56
2023/06/27 08:17:01;;;;;;;1.20;0.50;;;22.20;1.00;;;;;;5113100;27;20537;-56
2023/06/27 08:19:28;;;;;;;1.10;0.40;;;22.30;1.00;;;;;;5112588;28;20526;-56
2023/06/27 08:21:55;;;;;;;1.00;0.40;;;22.40;1.00;;;;;;5113094;28;20636;-56
2023/06/27 08:24:22;;;;;;;1.30;0.40;;;22.50;1.00;;;;;;5112539;28;20419;-54
2023/06/27 08:26:49;;;;;;;0.70;0.40;;;22.50;1.00;;;;;;5113011;28;20948;-58
2023/06/27 08:29:18;;;;;;;0.90;0.40;;;22.40;1.00;;;;;;5112789;28;20431;-56
2023/06/27 08:31:46;;;;;;;0.90;0.50;;;22.50;1.00;;;;;;5113574;28;20455;-56
2023/06/27 08:34:13;;;;;;;0.70;0.40;;;22.60;1.00;;;;;;5112012;28;20438;-56
2023/06/27 08:36:40;;;;;;;2.10;0.50;;;22.90;1.00;;;;;;5110029;28;20459;-59
2023/06/27 08:39:07;;;;;;;1.00;0.40;;;23.20;1.00;;;;;;5111434;28;20416;-54
2023/06/27 08:41:34;;;;;;;1.00;0.40;;;23.10;1.00;;;;;;5112901;28;20437;-55
2023/06/27 08:44:02;;;;;;;0.90;0.50;;;23.30;1.00;;;;;;5111933;28;20884;-54
2023/06/27 08:46:33;;;;;;;1.40;0.40;;;23.70;1.00;;;;;;5111532;28;20917;-54
2023/06/27 08:49:03;;;;;;;1.23;0.60;;;23.90;1.00;;;;;;5112012;28;20831;-54
2023/06/27 08:51:31;;;;;;;1.90;0.57;;;24.30;1.00;;;;;;5109999;28;20424;-56
2023/06/27 08:54:10;;;;;;;1.30;0.85;;;24.00;1.00;;;;;;5115083;28;20432;-54
2023/06/27 08:56:38;;;;;;;1.00;0.50;;;23.80;1.00;;;;;;5114017;28;20839;-53
2023/06/27 08:59:09;;;;;;;0.75;0.50;;;24.00;1.00;;;;;;5111436;28;20428;-55
2023/06/27 09:01:39;;;;;;;0.60;0.40;;;24.10;1.00;;;;;;5111934;28;20810;-53
2023/06/27 09:04:06;;;;;;;2.38;0.50;;;24.20;1.00;;;;;;5112699;28;20427;-52
2023/06/27 09:06:32;;;;;;;0.90;0.50;;;24.20;1.00;;;;;;5113511;28;20801;-56
2023/06/27 09:09:00;;;;;;;1.30;0.50;;;23.80;1.00;;;;;;5109320;28;20451;-54
2023/06/27 09:11:29;;;;;;;1.23;0.60;;;23.60;1.00;;;;;;5109248;28;20424;-52
2023/06/27 09:13:55;;;;;;;1.50;0.40;;;23.60;1.00;;;;;;5111248;28;20420;-56
2023/06/27 09:16:23;;;;;;;0.95;0.50;;;23.90;1.00;;;;;;5113274;28;20501;-55
2023/06/27 09:18:52;;;;;;;1.30;0.40;;;24.10;1.00;;;;;;5113200;28;20466;-54
2023/06/27 09:21:20;;;;;;;0.93;0.47;;;24.40;1.00;;;;;;5112745;28;20844;-53
2023/06/27 09:23:49;;;;;;;0.60;0.40;;;24.50;1.00;;;;;;5112140;28;20514;-55
2023/06/27 09:26:16;;;;;;;0.75;0.43;;;24.10;1.00;;;;;;5112179;28;20419;-54
2023/06/27 09:28:47;;;;;;;1.23;0.50;;;23.70;1.00;;;;;;5111870;28;20568;-55
2023/06/27 09:31:17;;;;;;;1.10;0.50;;;23.60;1.00;;;;;;5113130;28;20496;-55
2023/06/27 09:33:44;;;;;;;2.20;0.50;;;23.80;1.00;;;;;;5112296;28;20408;-52
2023/06/27 09:36:29;;;;;;;0.83;0.50;;;23.90;1.00;;;;;;5111521;28;20979;-53
2023/06/27 09:38:56;;;;;;;1.45;0.50;;;23.80;1.00;;;;;;5111569;28;20489;-53
2023/06/27 09:41:23;;;;;;;0.80;0.50;;;24.00;1.00;;;;;;5110786;28;20423;-53
2023/06/27 09:43:52;;;;;;;0.77;0.43;;;23.90;1.00;;;;;;5111216;28;20431;-54
2023/06/27 09:46:21;;;;;;;0.90;0.50;;;24.00;1.00;;;;;;5111375;28;20560;-53
2023/06/27 09:48:48;;;;;;;0.80;0.40;;;24.20;1.00;;;;;;5128773;27;21147;-55
2023/06/27 09:51:24;;;;;;;1.00;0.50;;;24.10;1.00;;;;;;5129383;27;20438;-55
2023/06/27 09:53:54;;;;;;;1.20;0.40;;;24.30;1.00;;;;;;5130425;27;20469;-49
2023/06/27 09:56:30;;;;;;;4.80;3.40;;;24.30;1.00;;;;;;5130760;28;21035;-54
2023/06/27 09:58:57;;;;;;;1.10;0.60;;;24.60;1.00;;;;;;5132317;28;20513;-55
2023/06/27 10:01:24;;;;;;;2.20;0.50;;;24.50;1.00;;;;;;5130433;28;20872;-55
2023/06/27 10:03:51;;;;;;;1.40;0.40;;;24.80;1.00;;;;;;5128297;28;20502;-53
2023/06/27 10:06:20;;;;;;;0.80;0.50;;;25.00;1.00;;;;;;5130846;28;20438;-53
2023/06/27 10:08:48;;;;;;;0.90;0.50;;;25.00;1.00;;;;;;5130697;28;20957;-55
2023/06/27 10:11:15;;;;;;;0.63;0.40;;;24.80;1.00;;;;;;5132311;28;20468;-53
2023/06/27 10:13:42;;;;;;;0.90;0.40;;;24.70;1.00;;;;;;5131397;28;20426;-54
2023/06/27 10:16:10;;;;;;;1.30;0.47;;;24.60;1.00;;;;;;5129711;28;20422;-55
2023/06/27 10:18:37;;;;;;;1.15;0.50;;;24.90;1.00;;;;;;5130807;28;20771;-54
2023/06/27 10:21:05;;;;;;;0.70;0.40;;;24.90;1.00;;;;;;5130909;28;20902;-54
2023/06/27 10:23:35;;;;;;;1.00;0.50;;;25.00;1.00;;;;;;5131432;28;20427;-57
2023/06/27 10:26:02;;;;;;;1.10;0.50;;;25.00;1.00;;;;;;5133864;27;20730;-53
2023/06/27 10:28:31;;;;;;;0.90;0.40;;;25.30;1.00;;;;;;5135518;27;20434;-51
2023/06/27 10:30:58;;;;;;;0.70;0.50;;;25.30;1.00;;;;;;5136387;27;20729;-55
2023/06/27 10:33:31;;;;;;;0.65;0.47;;;25.40;1.00;;;;;;5134834;27;20415;-53
2023/06/27 10:36:01;;;;;;;0.90;0.50;;;25.20;1.00;;;;;;5134954;27;20843;-54
2023/06/27 10:38:35;;;;;;;0.70;0.50;;;25.10;1.00;;;;;;5133703;27;20442;-55
2023/06/27 10:41:26;;;;;;;0.90;0.40;;;25.30;1.00;;;;;;5134174;27;20418;-54
2023/06/27 10:43:54;;;;;;;1.20;0.50;;;25.60;1.00;;;;;;5135591;27;20422;-53
2023/06/27 10:46:23;;;;;;;0.80;0.40;;;26.00;1.00;;;;;;5133080;27;20418;-55
2023/06/27 10:48:53;;;;;;;1.10;0.98;;;26.00;1.00;;;;;;5133032;27;20406;-52
2023/06/27 10:51:21;;;;;;;0.73;0.40;;;25.80;1.00;;;;;;5135274;27;20714;-55
2023/06/27 10:54:18;;;;;;;1.20;0.40;;;25.90;1.00;;;;;;5132469;27;20606;-53
2023/06/27 10:56:46;;;;;;;1.00;0.30;;;26.10;1.00;;;;;;5134127;27;20538;-53
2023/06/27 10:59:16;;;;;;;1.30;0.40;;;26.50;1.00;;;;;;5135688;27;20437;-54
2023/06/27 11:01:44;;;;;;;1.25;0.40;;;26.20;1.00;;;;;;5126678;27;20432;-52
2023/06/27 11:04:18;;;;;;;0.60;0.40;;;25.30;1.00;;;;;;5116149;27;20424;-53
2023/06/27 11:06:46;;;;;;;0.90;0.40;;;25.10;1.00;;;;;;5114054;28;20528;-51
2023/06/27 11:09:14;;;;;;;0.80;0.40;;;25.40;1.00;;;;;;5114683;28;20434;-52
2023/06/27 11:11:54;;;;;;;0.90;0.50;;;25.70;1.00;;;;;;5114073;28;20431;-52
2023/06/27 11:14:35;;;;;;;0.67;0.40;;;25.60;1.00;;;;;;5113748;28;20770;-55
2023/06/27 11:17:03;;;;;;;0.70;0.40;;;25.70;1.00;;;;;;5115256;28;20432;-54
2023/06/27 11:19:31;;;;;;;1.20;0.43;;;25.80;1.00;;;;;;5114119;28;20416;-55
2023/06/27 11:21:59;;;;;;;1.15;0.40;;;25.80;1.00;;;;;;5117205;27;20426;-53
2023/06/27 11:24:27;;;;;;;0.60;0.40;;;26.00;1.00;;;;;;5134713;27;20414;-54
2023/06/27 11:26:56;;;;;;;0.60;0.40;;;25.80;1.00;;;;;;5136118;27;20927;-55
2023/06/27 11:29:23;;;;;;;1.70;0.40;;;26.00;1.00;;;;;;5136034;27;20418;-55
2023/06/27 11:31:50;;;;;;;1.23;0.40;;;25.70;1.00;;;;;;5134214;27;20470;-55
2023/06/27 11:34:18;;;;;;;0.70;0.50;;;25.30;1.00;;;;;;5133676;27;20795;-55
2023/06/27 11:36:46;;;;;;;0.60;0.40;;;25.30;1.00;;;;;;5133893;27;20450;-56
2023/06/27 11:39:13;;;;;;;1.90;0.40;;;25.00;1.00;;;;;;5133924;27;20448;-55
2023/06/27 11:41:40;;;;;;;0.77;0.40;;;25.40;1.00;;;;;;5134562;27;20427;-53
2023/06/27 11:44:10;;;;;;;1.20;0.40;;;25.90;1.00;;;;;;5134376;27;20423;-54
2023/06/27 11:46:46;;;;;;;0.80;0.50;;;26.20;1.00;;;;;;5133134;27;20761;-55
2023/06/27 11:49:13;;;;;;;0.50;0.38;;;26.00;1.00;;;;;;5133487;27;20499;-51
2023/06/27 11:51:41;;;;;;;1.13;0.50;;;26.20;1.00;;;;;;5132997;27;20415;-55
2023/06/27 11:54:08;;;;;;;0.70;0.40;;;26.20;1.00;;;;;;5133326;27;20441;-57
2023/06/27 11:56:37;;;;;;;2.40;0.40;;;26.50;1.00;;;;;;5131789;27;20438;-54
2023/06/27 11:59:06;;;;;;;2.47;0.50;;;26.60;1.00;;;;;;5133525;27;20490;-54
2023/06/27 12:01:41;;;;;;;1.00;0.50;;;26.40;1.00;;;;;;5131544;27;20422;-56
2023/06/27 12:04:14;;;;;;;1.20;0.40;;;26.50;1.00;;;;;;5132944;27;20429;-55
2023/06/27 12:06:41;;;;;;;1.10;0.50;;;26.30;1.00;;;;;;5131445;27;20545;-53
2023/06/27 12:09:09;;;;;;;0.80;0.47;;;26.20;1.00;;;;;;5131859;27;20418;-55
2023/06/27 12:11:36;;;;;;;1.20;0.40;;;26.20;1.00;;;;;;5134682;27;20427;-54
2023/06/27 12:14:03;;;;;;;1.27;0.40;;;26.10;1.00;;;;;;5135224;27;20521;-53
2023/06/27 12:16:33;;;;;;;0.70;0.40;;;26.30;1.00;;;;;;5134753;27;20430;-52
2023/06/27 12:19:05;;;;;;;0.97;0.40;;;26.30;1.00;;;;;;5133636;27;20658;-54
2023/06/27 12:21:33;;;;;;;1.25;0.40;;;26.00;1.00;;;;;;5133465;27;20453;-52
2023/06/27 12:24:00;;;;;;;0.60;0.40;;;26.00;1.00;;;;;;5133461;27;20422;-52
2023/06/27 12:26:27;;;;;;;0.70;0.40;;;26.00;1.00;;;;;;5131876;27;20759;-55
2023/06/27 12:28:57;;;;;;;1.00;0.50;;;26.00;1.00;;;;;;5132506;27;20423;-54
2023/06/27 12:31:25;;;;;;;2.30;0.40;;;26.30;1.00;;;;;;5131604;27;20734;-53
2023/06/27 12:33:53;;;;;;;1.45;0.43;;;26.70;1.00;;;;;;5131594;27;20449;-51
2023/06/27 12:36:23;;;;;;;0.82;0.50;;;26.70;1.00;;;;;;5131960;27;20427;-52
2023/06/27 12:38:50;;;;;;;0.85;0.40;;;26.60;1.00;;;;;;5133190;27;20517;-53
2023/06/27 12:41:19;;;;;;;1.30;0.52;;;25.90;1.00;;;;;;5132804;27;20475;-53
2023/06/27 12:43:46;;;;;;;0.90;0.50;;;25.90;1.00;;;;;;5131733;27;20479;-54
2023/06/27 12:46:14;;;;;;;1.50;0.40;;;25.60;1.00;;;;;;5131107;27;20422;-49
2023/06/27 12:48:41;;;;;;;2.10;0.50;;;25.70;1.00;;;;;;5131968;27;20934;-54
2023/06/27 12:51:08;;;;;;;0.95;0.45;;;25.70;1.00;;;;;;5132964;27;20442;-54
2023/06/27 12:53:36;;;;;;;0.85;0.45;;;26.30;1.00;;;;;;5131994;27;20491;-54
2023/06/27 12:56:04;;;;;;;1.10;0.50;;;26.50;1.00;;;;;;5131356;27;20433;-54
2023/06/27 12:58:31;;;;;;;2.10;0.47;;;27.00;1.00;;;;;;5131174;27;20423;-53
2023/06/27 13:01:00;;;;;;;1.30;0.50;;;27.20;1.00;;;;;;5130038;27;20908;-53
2023/06/27 13:03:27;;;;;;;0.82;0.50;;;27.20;1.00;;;;;;5132065;27;20422;-52